Time;durP1;ratioP1;P1;durP2;ratioP2;P2;SDS_P1;SDS_P2;PMS_P1;PMS_P2;Temp;Humidity;BMP_temperature;BMP_pressure;BME280_temperature;BME280_humidity;BME280_pressure;Samples;Min_cycle;Max_cycle;Signal;HPM_P1;HPM_P2
2023/06/06 00:00:22;;;;;;;10.23;7.00;;;18.80;99.90;;;;;;2603722;54;20566;31
2023/06/06 00:02:57;;;;;;;9.93;6.35;;;18.80;99.90;;;;;;2621882;46;20270;31
2023/06/06 00:05:33;;;;;;;8.13;6.55;;;18.80;99.90;;;;;;2603871;54;20561;31
2023/06/06 00:08:08;;;;;;;8.88;5.85;;;18.70;99.90;;;;;;2603872;54;20816;31
2023/06/06 00:10:46;;;;;;;10.10;6.95;;;18.70;99.90;;;;;;2603792;54;20022;31
2023/06/06 00:13:21;;;;;;;7.78;6.45;;;18.60;99.90;;;;;;2603699;54;20030;31
2023/06/06 00:15:57;;;;;;;9.95;7.00;;;18.70;99.90;;;;;;2603611;54;20030;31
2023/06/06 00:18:33;;;;;;;10.70;6.75;;;18.60;99.90;;;;;;2702070;39;20585;31
2023/06/06 00:21:08;;;;;;;10.43;6.90;;;18.70;99.90;;;;;;2621880;46;20912;31
2023/06/06 00:23:44;;;;;;;9.90;6.43;;;18.70;99.90;;;;;;2603406;54;20926;31
2023/06/06 00:26:22;;;;;;;8.43;6.47;;;18.60;99.90;;;;;;2622253;46;20565;31
2023/06/06 00:28:57;;;;;;;9.13;6.63;;;18.60;99.90;;;;;;2603555;54;20250;31
2023/06/06 00:31:31;;;;;;;7.57;5.75;;;18.60;99.90;;;;;;2603721;54;20861;31
2023/06/06 00:34:09;;;;;;;7.93;5.90;;;18.60;99.90;;;;;;2603238;54;20869;31
2023/06/06 00:36:41;;;;;;;8.52;5.30;;;18.60;99.90;;;;;;2603449;54;20026;31
2023/06/06 00:39:16;;;;;;;9.18;6.22;;;18.60;99.90;;;;;;2603498;54;20871;31
2023/06/06 00:41:54;;;;;;;7.57;6.10;;;18.50;99.90;;;;;;2603499;54;20089;31
2023/06/06 00:44:29;;;;;;;7.93;5.93;;;18.50;99.90;;;;;;2603559;54;20049;31
2023/06/06 00:47:04;;;;;;;7.50;5.78;;;18.40;99.90;;;;;;2622188;46;20049;31
2023/06/06 00:49:39;;;;;;;10.60;7.20;;;18.40;99.90;;;;;;2603478;54;20863;31
2023/06/06 00:52:14;;;;;;;11.40;7.20;;;18.30;99.90;;;;;;2603371;54;20305;31
2023/06/06 00:54:50;;;;;;;9.45;6.60;;;18.30;99.90;;;;;;2603393;54;20800;31
2023/06/06 00:57:29;;;;;;;8.50;5.90;;;18.20;99.90;;;;;;2603346;54;20037;31
2023/06/06 01:00:06;;;;;;;6.85;5.85;;;18.20;99.90;;;;;;2603272;54;20758;31
2023/06/06 01:02:43;;;;;;;8.63;5.88;;;18.20;99.90;;;;;;2603642;54;20022;31
2023/06/06 01:05:19;;;;;;;10.27;6.93;;;18.10;99.90;;;;;;2603371;54;20038;31
2023/06/06 01:07:53;;;;;;;9.27;7.00;;;18.20;99.90;;;;;;2603471;54;20758;31
2023/06/06 01:10:30;;;;;;;14.40;6.57;;;18.20;99.90;;;;;;2603669;54;20038;31
2023/06/06 01:13:13;;;;;;;8.20;7.00;;;18.20;99.90;;;;;;2603506;54;20049;31
2023/06/06 01:15:50;;;;;;;8.80;6.95;;;18.20;99.90;;;;;;2719985;39;20411;31
2023/06/06 01:18:25;;;;;;;10.60;6.95;;;18.10;99.90;;;;;;2603535;54;20834;31
2023/06/06 01:21:00;;;;;;;9.00;7.72;;;18.10;99.90;;;;;;2603477;54;20031;31
2023/06/06 01:23:38;;;;;;;12.67;9.07;;;18.00;99.90;;;;;;2622032;46;20081;31
2023/06/06 01:26:13;;;;;;;12.25;8.93;;;18.00;99.90;;;;;;2702203;39;21026;31
2023/06/06 01:28:48;;;;;;;11.75;8.30;;;18.00;99.90;;;;;;2621542;46;20904;31
2023/06/06 01:31:23;;;;;;;10.30;8.70;;;17.90;99.90;;;;;;2622294;46;20831;31
2023/06/06 01:34:02;;;;;;;9.70;8.50;;;17.90;99.90;;;;;;2603221;54;20140;31
2023/06/06 01:36:43;;;;;;;10.95;9.13;;;17.90;99.90;;;;;;2702130;39;21006;31
2023/06/06 01:39:22;;;;;;;9.05;8.05;;;17.90;99.90;;;;;;2701909;39;20545;31
2023/06/06 01:41:57;;;;;;;11.63;9.27;;;17.90;99.90;;;;;;2603344;54;20105;31
2023/06/06 01:44:32;;;;;;;11.18;8.95;;;17.80;99.90;;;;;;2621570;46;20042;31
2023/06/06 01:47:08;;;;;;;11.17;9.90;;;17.80;99.90;;;;;;2603226;54;20683;31
2023/06/06 01:49:44;;;;;;;10.67;8.70;;;17.80;99.90;;;;;;2603471;54;20028;31
2023/06/06 01:52:21;;;;;;;11.07;9.43;;;17.80;99.90;;;;;;2603282;54;20302;31
2023/06/06 01:55:01;;;;;;;11.00;9.23;;;17.80;99.90;;;;;;2621494;46;20081;31
2023/06/06 01:57:35;;;;;;;11.93;9.07;;;17.80;99.90;;;;;;2621785;46;20958;31
2023/06/06 02:00:15;;;;;;;8.98;6.70;;;17.70;99.90;;;;;;2603198;54;20879;31
2023/06/06 02:02:51;;;;;;;11.25;8.40;;;17.80;99.90;;;;;;2603324;54;20022;31
2023/06/06 02:05:26;;;;;;;11.15;9.23;;;17.80;99.90;;;;;;2603296;54;20036;31
2023/06/06 02:08:01;;;;;;;10.30;8.25;;;17.80;99.90;;;;;;2603273;54;20588;31
2023/06/06 02:10:39;;;;;;;14.60;10.10;;;17.80;99.90;;;;;;2603125;54;20030;31
2023/06/06 02:13:14;;;;;;;11.13;9.85;;;17.80;99.90;;;;;;2621798;46;20588;31
2023/06/06 02:15:49;;;;;;;12.60;10.25;;;17.70;99.90;;;;;;2603128;54;20829;31
2023/06/06 02:18:24;;;;;;;14.00;9.60;;;17.70;99.90;;;;;;2603035;54;20763;31
2023/06/06 02:21:00;;;;;;;11.52;9.50;;;17.70;99.90;;;;;;2603284;54;20247;31
2023/06/06 02:23:34;;;;;;;9.05;7.30;;;17.70;99.90;;;;;;2603205;54;20902;31
2023/06/06 02:26:12;;;;;;;11.40;9.25;;;17.80;99.90;;;;;;2772902;31;20619;31
2023/06/06 02:28:48;;;;;;;10.25;8.07;;;17.70;99.90;;;;;;2603328;54;20054;31
2023/06/06 02:31:26;;;;;;;11.70;9.95;;;17.80;99.90;;;;;;2621202;46;19941;31
2023/06/06 02:34:01;;;;;;;11.75;9.82;;;17.70;99.90;;;;;;2621449;46;20030;31
2023/06/06 02:36:38;;;;;;;13.13;9.83;;;17.70;99.90;;;;;;2603064;54;20030;31
2023/06/06 02:39:13;;;;;;;11.38;9.50;;;17.70;99.90;;;;;;2603270;54;21194;31
2023/06/06 02:41:52;;;;;;;12.37;9.90;;;17.60;99.90;;;;;;2603209;54;20029;31
2023/06/06 02:44:28;;;;;;;11.80;8.18;;;17.70;99.90;;;;;;2603050;54;20041;31
2023/06/06 02:47:02;;;;;;;;;;;17.70;99.90;;;;;;2603379;54;20772;31
2023/06/06 02:49:37;;;;;;;12.60;9.33;;;17.60;99.90;;;;;;2603145;54;19939;31
2023/06/06 02:52:13;;;;;;;12.30;10.20;;;17.50;99.90;;;;;;2602945;54;20247;31
2023/06/06 02:54:47;;;;;;;;;;;17.50;99.90;;;;;;2603213;54;20030;31
2023/06/06 02:57:25;;;;;;;10.47;8.53;;;17.50;99.90;;;;;;2603323;54;20408;31
2023/06/06 03:00:01;;;;;;;9.90;8.77;;;17.50;99.90;;;;;;2603808;54;20108;31
2023/06/06 03:02:36;;;;;;;11.27;10.18;;;17.50;99.90;;;;;;2603983;54;20085;31
2023/06/06 03:05:13;;;;;;;10.60;9.52;;;17.50;99.90;;;;;;2603942;54;20034;31
2023/06/06 03:07:48;;;;;;;11.80;9.05;;;17.50;99.90;;;;;;2603845;54;20873;31
2023/06/06 03:10:23;;;;;;;10.30;9.30;;;17.50;99.90;;;;;;2603805;54;20779;31
2023/06/06 03:13:01;;;;;;;12.43;10.13;;;17.50;99.90;;;;;;2603645;54;20034;31
2023/06/06 03:15:37;;;;;;;13.93;9.90;;;17.50;99.90;;;;;;2603773;54;20026;31
2023/06/06 03:18:11;;;;;;;12.45;10.50;;;17.50;99.90;;;;;;2720957;39;21410;31
2023/06/06 03:20:46;;;;;;;12.82;10.85;;;17.50;99.90;;;;;;2603976;54;20026;31
2023/06/06 03:23:24;;;;;;;13.65;11.10;;;17.50;99.90;;;;;;2622626;46;20049;31
2023/06/06 03:26:03;;;;;;;12.57;11.10;;;17.40;99.90;;;;;;2603771;54;20026;31
2023/06/06 03:28:42;;;;;;;10.90;9.73;;;17.40;99.90;;;;;;2603745;54;20022;31
2023/06/06 03:31:23;;;;;;;8.88;7.97;;;17.40;99.90;;;;;;2603565;54;21579;31
2023/06/06 03:34:01;;;;;;;15.20;9.38;;;17.40;99.90;;;;;;2603775;54;20038;31
2023/06/06 03:36:38;;;;;;;13.50;11.02;;;17.40;99.90;;;;;;2603712;54;20945;31
2023/06/06 03:39:17;;;;;;;14.10;10.70;;;17.40;99.90;;;;;;2622223;46;20026;31
2023/06/06 03:41:56;;;;;;;11.77;10.57;;;17.40;99.90;;;;;;2622393;46;20053;31
2023/06/06 03:44:36;;;;;;;14.65;11.50;;;17.40;99.90;;;;;;2603644;54;20565;31
2023/06/06 03:47:11;;;;;;;13.32;10.32;;;17.40;99.90;;;;;;2603711;54;20116;31
2023/06/06 03:49:49;;;;;;;12.23;10.05;;;17.30;99.90;;;;;;2622331;46;20876;31
2023/06/06 03:52:28;;;;;;;12.25;10.93;;;17.30;99.90;;;;;;2622153;46;20100;31
2023/06/06 03:55:05;;;;;;;11.60;10.38;;;17.30;99.90;;;;;;2603747;54;20924;31
2023/06/06 03:57:40;;;;;;;12.73;10.35;;;17.30;99.90;;;;;;2603760;54;20770;31
2023/06/06 04:00:19;;;;;;;10.80;9.70;;;17.30;99.90;;;;;;2622509;46;20932;31
2023/06/06 04:02:56;;;;;;;11.10;9.90;;;17.30;99.90;;;;;;2603924;54;20022;31
2023/06/06 04:05:33;;;;;;;11.70;10.55;;;17.30;99.90;;;;;;2603690;54;20034;31
2023/06/06 04:08:10;;;;;;;11.10;10.00;;;17.20;99.90;;;;;;2603396;54;20581;31
2023/06/06 04:10:46;;;;;;;13.10;11.67;;;17.20;99.90;;;;;;2603790;54;20057;31
2023/06/06 04:13:22;;;;;;;12.18;9.75;;;17.30;99.90;;;;;;2603619;54;21115;31
2023/06/06 04:16:01;;;;;;;12.05;10.88;;;17.20;99.90;;;;;;2701949;39;20568;31
2023/06/06 04:18:37;;;;;;;12.05;10.85;;;17.20;99.90;;;;;;2603483;54;21393;31
2023/06/06 04:21:15;;;;;;;11.15;9.70;;;17.20;99.90;;;;;;2603594;54;20477;31
2023/06/06 04:23:50;;;;;;;11.43;10.23;;;17.20;99.90;;;;;;2603706;54;20027;31
2023/06/06 04:26:31;;;;;;;11.20;10.10;;;17.20;99.90;;;;;;2603867;54;20027;31
2023/06/06 04:29:05;;;;;;;15.40;10.50;;;17.30;99.90;;;;;;2602856;54;20899;31
2023/06/06 04:31:47;;;;;;;11.05;9.75;;;17.30;99.90;;;;;;2603494;54;20039;31
2023/06/06 04:34:28;;;;;;;11.73;9.70;;;17.30;99.90;;;;;;2603620;54;20026;31
2023/06/06 04:37:06;;;;;;;12.73;9.57;;;17.30;99.90;;;;;;2603602;54;20270;31
2023/06/06 04:39:44;;;;;;;10.57;9.40;;;17.30;99.90;;;;;;2603694;54;20026;31
2023/06/06 04:42:19;;;;;;;16.40;10.23;;;17.30;99.90;;;;;;2603496;54;20031;31
2023/06/06 04:44:55;;;;;;;11.50;9.60;;;17.30;99.90;;;;;;2621990;46;20027;31
2023/06/06 04:47:37;;;;;;;8.95;8.05;;;17.30;99.90;;;;;;2603556;54;20030;31
2023/06/06 04:50:12;;;;;;;10.17;8.50;;;17.30;99.90;;;;;;2622121;46;20041;31
2023/06/06 04:52:50;;;;;;;10.95;9.85;;;17.30;99.90;;;;;;2603648;54;20126;31
2023/06/06 04:55:27;;;;;;;10.55;8.85;;;17.40;99.90;;;;;;2603361;54;20085;31
2023/06/06 04:58:02;;;;;;;8.30;7.50;;;17.40;99.90;;;;;;2701993;39;20466;31
2023/06/06 05:00:38;;;;;;;11.37;10.27;;;17.40;99.90;;;;;;2603378;54;20603;31
2023/06/06 05:03:19;;;;;;;9.73;8.02;;;17.40;99.90;;;;;;2622038;46;21246;31
2023/06/06 05:05:56;;;;;;;15.83;10.07;;;17.50;99.90;;;;;;2603701;54;20053;31
2023/06/06 05:08:31;;;;;;;15.88;10.95;;;17.50;99.90;;;;;;2603178;54;20037;31
2023/06/06 05:11:06;;;;;;;11.50;10.20;;;17.40;99.90;;;;;;2621637;46;20022;31
2023/06/06 05:13:42;;;;;;;12.05;10.85;;;17.40;99.90;;;;;;2603518;54;20620;31
2023/06/06 05:16:19;;;;;;;13.13;10.27;;;17.30;99.90;;;;;;2603151;54;20034;31
2023/06/06 05:18:59;;;;;;;11.25;10.15;;;17.30;99.90;;;;;;2621763;46;20031;31
2023/06/06 05:21:33;;;;;;;13.15;10.90;;;17.20;99.90;;;;;;2603372;54;20887;31
2023/06/06 05:24:09;;;;;;;13.60;11.43;;;17.20;99.90;;;;;;2622041;46;20093;31
2023/06/06 05:26:48;;;;;;;13.50;11.00;;;17.20;99.90;;;;;;2603332;54;20022;31
2023/06/06 05:29:25;;;;;;;13.33;10.03;;;17.20;99.90;;;;;;2622061;46;20129;31
2023/06/06 05:31:59;;;;;;;12.68;10.80;;;17.20;99.90;;;;;;2603548;54;20038;31
2023/06/06 05:34:38;;;;;;;13.07;11.77;;;17.20;99.90;;;;;;2701674;39;20508;31
2023/06/06 05:37:13;;;;;;;12.07;9.67;;;17.30;99.90;;;;;;2720412;39;20500;31
2023/06/06 05:39:48;;;;;;;15.55;10.35;;;17.30;99.90;;;;;;2621637;46;20246;31
2023/06/06 05:42:24;;;;;;;12.30;11.00;;;17.40;99.90;;;;;;2603328;54;21083;31
2023/06/06 05:44:59;;;;;;;10.18;8.68;;;17.40;99.90;;;;;;2603376;54;21086;31
2023/06/06 05:47:37;;;;;;;12.98;11.68;;;17.40;99.90;;;;;;2621949;46;20030;31
2023/06/06 05:50:17;;;;;;;10.38;9.38;;;17.50;99.90;;;;;;2603539;54;20026;31
2023/06/06 05:52:51;;;;;;;12.43;9.73;;;17.50;99.90;;;;;;2603386;54;20120;31
2023/06/06 05:55:30;;;;;;;10.95;9.88;;;17.60;99.90;;;;;;2603148;54;20027;31
2023/06/06 05:58:05;;;;;;;17.27;10.57;;;17.60;99.90;;;;;;2603378;54;20036;31
2023/06/06 06:00:40;;;;;;;11.60;9.37;;;17.70;99.90;;;;;;2603517;54;19934;31
2023/06/06 06:03:15;;;;;;;11.55;10.40;;;17.70;99.90;;;;;;2603488;54;20030;31
2023/06/06 06:05:54;;;;;;;13.02;10.18;;;17.80;99.90;;;;;;2603360;54;20038;31
2023/06/06 06:08:31;;;;;;;13.63;11.27;;;17.90;99.90;;;;;;2603246;54;20038;31
2023/06/06 06:11:07;;;;;;;15.70;10.98;;;17.90;99.90;;;;;;2603082;54;20901;31
2023/06/06 06:13:42;;;;;;;11.82;10.48;;;17.90;99.90;;;;;;2621940;46;20461;31
2023/06/06 06:16:17;;;;;;;11.80;9.60;;;18.00;99.90;;;;;;2603058;54;20898;31
2023/06/06 06:18:55;;;;;;;10.70;9.57;;;18.10;99.90;;;;;;2603463;54;20116;31
2023/06/06 06:21:35;;;;;;;10.75;9.40;;;18.20;99.90;;;;;;2621813;46;20876;31
2023/06/06 06:24:10;;;;;;;12.60;11.30;;;18.30;99.90;;;;;;2603450;54;20022;31
2023/06/06 06:26:46;;;;;;;11.20;9.85;;;18.40;99.90;;;;;;2621971;46;20089;31
2023/06/06 06:29:20;;;;;;;10.52;9.43;;;18.50;99.90;;;;;;2621737;46;20108;31
2023/06/06 06:31:58;;;;;;;14.03;8.23;;;18.80;99.90;;;;;;2602718;54;20075;31
2023/06/06 06:34:33;;;;;;;9.93;8.85;;;19.00;99.90;;;;;;2603335;54;20249;31
2023/06/06 06:37:16;;;;;;;13.43;9.05;;;19.20;99.90;;;;;;2603220;54;20861;31
2023/06/06 06:39:52;;;;;;;13.40;9.75;;;19.50;99.90;;;;;;2621510;46;20022;31
2023/06/06 06:42:29;;;;;;;10.13;7.78;;;19.80;99.90;;;;;;2621565;46;20100;31
2023/06/06 06:45:21;;;;;;;10.18;8.40;;;20.00;99.90;;;;;;2603113;54;20561;31
2023/06/06 06:47:58;;;;;;;8.53;7.07;;;20.10;99.90;;;;;;2701698;39;20503;31
2023/06/06 06:50:35;;;;;;;8.23;6.88;;;20.30;99.90;;;;;;2603203;54;20023;31
2023/06/06 06:53:14;;;;;;;11.15;7.45;;;20.50;99.90;;;;;;2621338;47;20035;31
2023/06/06 06:55:51;;;;;;;8.68;5.75;;;20.60;99.90;;;;;;2621803;47;20096;31
2023/06/06 06:58:33;;;;;;;10.68;7.05;;;20.80;99.90;;;;;;2602818;54;20809;31
2023/06/06 07:01:09;;;;;;;10.20;5.78;;;20.80;99.90;;;;;;2621356;47;20027;31
2023/06/06 07:03:48;;;;;;;7.80;5.70;;;21.00;99.90;;;;;;2603198;54;20081;31
2023/06/06 07:06:24;;;;;;;8.52;6.20;;;21.10;99.90;;;;;;2603090;54;20148;31
2023/06/06 07:09:06;;;;;;;8.85;5.85;;;21.20;99.90;;;;;;2603037;54;20033;31
2023/06/06 07:11:43;;;;;;;6.40;5.40;;;21.30;99.90;;;;;;2700737;39;20404;31
2023/06/06 07:14:20;;;;;;;9.25;5.47;;;21.30;99.90;;;;;;2602339;54;20937;31
2023/06/06 07:16:57;;;;;;;7.40;4.72;;;21.30;99.90;;;;;;2603054;54;20031;31
2023/06/06 07:19:32;;;;;;;6.60;3.70;;;21.30;99.90;;;;;;2602289;54;20751;31
2023/06/06 07:22:08;;;;;;;5.45;3.60;;;21.30;99.90;;;;;;2602958;54;20030;31
2023/06/06 07:24:48;;;;;;;6.57;4.63;;;21.40;99.90;;;;;;2621135;47;20027;31
2023/06/06 07:27:23;;;;;;;6.15;4.60;;;21.40;99.90;;;;;;2700848;39;20497;31
2023/06/06 07:30:02;;;;;;;6.93;3.88;;;21.40;99.90;;;;;;2602231;54;20030;31
2023/06/06 07:32:38;;;;;;;4.55;3.60;;;21.60;99.90;;;;;;2621409;47;20029;31
2023/06/06 07:35:13;;;;;;;5.63;3.30;;;21.60;99.90;;;;;;2719647;39;20416;31
2023/06/06 07:37:49;;;;;;;5.53;4.03;;;21.70;99.90;;;;;;2603010;54;20030;31
2023/06/06 07:40:28;;;;;;;5.60;3.72;;;21.80;99.90;;;;;;2602991;54;20078;31
2023/06/06 07:43:05;;;;;;;5.88;3.85;;;21.80;99.90;;;;;;2603553;54;19939;31
2023/06/06 07:45:42;;;;;;;8.80;4.10;;;21.90;99.90;;;;;;2603667;54;20580;31
2023/06/06 07:48:18;;;;;;;9.05;4.75;;;21.90;99.90;;;;;;2603403;54;20245;31
2023/06/06 07:50:56;;;;;;;7.30;4.03;;;22.00;99.90;;;;;;2602943;54;20053;31
2023/06/06 07:53:32;;;;;;;7.65;3.70;;;22.00;99.90;;;;;;2603679;54;20037;31
2023/06/06 07:56:10;;;;;;;;;;;22.00;99.90;;;;;;2619635;46;20031;31
2023/06/06 07:58:51;;;;;;;6.63;3.47;;;22.10;99.90;;;;;;2612229;46;20758;31
2023/06/06 08:01:27;;;;;;;6.43;3.65;;;22.10;99.90;;;;;;2602888;54;20027;31
2023/06/06 08:04:07;;;;;;;4.95;3.75;;;22.20;99.90;;;;;;2603571;54;20577;31
2023/06/06 08:06:44;;;;;;;3.70;3.33;;;22.30;99.90;;;;;;2622353;46;20030;31
2023/06/06 08:09:19;;;;;;;5.60;3.83;;;22.40;99.90;;;;;;2603582;54;20871;31
2023/06/06 08:11:57;;;;;;;;;;;22.60;99.90;;;;;;2603347;54;20030;31
2023/06/06 08:14:36;;;;;;;4.50;3.60;;;22.70;99.90;;;;;;2602833;54;20806;31
2023/06/06 08:17:13;;;;;;;8.20;3.53;;;22.80;99.90;;;;;;2612397;46;20676;31
2023/06/06 08:19:50;;;;;;;4.53;3.53;;;23.00;99.90;;;;;;2603891;54;20581;31
2023/06/06 08:22:27;;;;;;;8.73;4.13;;;23.10;99.90;;;;;;2603723;54;20986;31
2023/06/06 08:25:07;;;;;;;4.70;3.30;;;23.20;99.90;;;;;;2603803;54;20109;31
2023/06/06 08:27:44;;;;;;;6.40;3.60;;;23.30;99.90;;;;;;2603308;54;20052;31
2023/06/06 08:30:24;;;;;;;5.10;3.13;;;23.40;99.90;;;;;;2603902;54;20053;31
2023/06/06 08:32:59;;;;;;;4.60;3.40;;;23.40;99.90;;;;;;2603568;54;20026;31
2023/06/06 08:35:36;;;;;;;7.15;3.15;;;23.50;99.90;;;;;;2622031;46;21341;31
2023/06/06 08:38:13;;;;;;;4.00;3.45;;;23.60;99.90;;;;;;2712153;39;20509;31
2023/06/06 08:40:50;;;;;;;7.43;3.38;;;23.60;99.90;;;;;;2603731;54;20026;31
2023/06/06 08:43:27;;;;;;;6.30;3.40;;;23.70;99.90;;;;;;2621791;46;20846;31
2023/06/06 08:46:07;;;;;;;5.35;3.42;;;23.70;99.90;;;;;;2603341;54;20727;31
2023/06/06 08:48:43;;;;;;;4.53;3.30;;;23.70;99.90;;;;;;2603710;54;20026;31
2023/06/06 08:51:19;;;;;;;5.77;3.53;;;23.80;99.90;;;;;;2603227;54;20037;31
2023/06/06 08:53:58;;;;;;;6.47;3.65;;;23.90;99.90;;;;;;2603287;54;20946;31
2023/06/06 08:56:37;;;;;;;5.13;3.08;;;24.00;99.90;;;;;;2622005;46;20051;31
2023/06/06 08:59:13;;;;;;;4.93;3.42;;;24.10;99.90;;;;;;2610269;46;20025;31
2023/06/06 09:01:54;;;;;;;7.13;4.00;;;24.20;99.90;;;;;;2603556;54;20030;31
2023/06/06 09:04:32;;;;;;;5.63;3.72;;;24.30;99.90;;;;;;2603450;54;20859;31
2023/06/06 09:07:11;;;;;;;5.07;3.23;;;24.40;99.90;;;;;;2603599;54;20030;31
2023/06/06 09:09:48;;;;;;;11.18;4.55;;;24.50;99.90;;;;;;2603519;54;20572;31
2023/06/06 09:12:25;;;;;;;5.88;4.20;;;24.60;99.90;;;;;;2603713;54;20033;31
2023/06/06 09:15:02;;;;;;;6.95;3.85;;;24.60;99.90;;;;;;2621710;46;20168;31
2023/06/06 09:17:41;;;;;;;4.05;3.30;;;24.60;99.90;;;;;;2603665;54;20164;31
2023/06/06 09:20:18;;;;;;;6.13;3.30;;;24.70;99.90;;;;;;2609719;46;20113;31
2023/06/06 09:23:00;;;;;;;6.60;3.40;;;24.60;99.90;;;;;;2603498;54;21282;31
2023/06/06 09:25:36;;;;;;;4.55;3.20;;;24.60;99.90;;;;;;2603409;54;20514;31
2023/06/06 09:28:16;;;;;;;4.55;3.38;;;24.60;99.90;;;;;;2720390;39;20477;31
2023/06/06 09:30:51;;;;;;;6.28;3.65;;;24.60;99.90;;;;;;2621665;46;20022;31
2023/06/06 09:33:32;;;;;;;6.72;3.08;;;24.60;99.90;;;;;;2619798;46;20034;31
2023/06/06 09:36:09;;;;;;;5.05;3.90;;;24.70;99.90;;;;;;2602789;54;20089;31
2023/06/06 09:38:48;;;;;;;6.50;4.30;;;24.70;99.90;;;;;;2605727;46;20089;31
2023/06/06 09:41:26;;;;;;;6.65;3.15;;;24.60;99.90;;;;;;2602183;54;20791;31
2023/06/06 09:44:02;;;;;;;5.80;3.03;;;24.60;99.90;;;;;;2602572;54;20030;31
2023/06/06 09:46:41;;;;;;;5.07;3.08;;;24.60;99.90;;;;;;2622097;46;20027;31
2023/06/06 09:49:20;;;;;;;5.60;3.70;;;24.70;99.90;;;;;;2602599;54;20932;31
2023/06/06 09:51:56;;;;;;;7.00;3.40;;;24.70;99.90;;;;;;2603396;54;20744;31
2023/06/06 09:54:32;;;;;;;3.85;3.05;;;24.80;99.90;;;;;;2603533;54;20037;31
2023/06/06 09:57:13;;;;;;;6.68;2.92;;;24.90;99.90;;;;;;2621491;46;20857;31
2023/06/06 09:59:54;;;;;;;4.75;3.33;;;24.90;99.90;;;;;;2621408;46;20991;31
2023/06/06 10:02:29;;;;;;;6.05;4.03;;;25.00;99.90;;;;;;2603412;54;20915;31
2023/06/06 10:05:10;;;;;;;4.00;3.35;;;25.00;99.90;;;;;;2701871;39;20489;31
2023/06/06 10:07:48;;;;;;;6.80;3.58;;;25.00;99.90;;;;;;2603382;54;20696;31
2023/06/06 10:10:24;;;;;;;4.05;3.22;;;25.00;99.90;;;;;;2603428;54;20889;31
2023/06/06 10:13:00;;;;;;;;;;;25.10;99.90;;;;;;2603451;54;20042;31
2023/06/06 10:15:37;;;;;;;4.18;3.40;;;25.20;99.90;;;;;;2621526;46;20770;31
2023/06/06 10:18:12;;;;;;;6.38;3.25;;;25.20;99.90;;;;;;2603256;54;20541;31
2023/06/06 10:20:53;;;;;;;5.10;3.30;;;25.30;99.90;;;;;;2603202;54;20035;31
2023/06/06 10:23:30;;;;;;;7.43;3.23;;;25.30;99.90;;;;;;2621709;46;20557;31
2023/06/06 10:26:07;;;;;;;6.35;2.90;;;25.30;99.90;;;;;;2603212;54;20027;31
2023/06/06 10:28:47;;;;;;;5.90;2.92;;;25.30;99.90;;;;;;2603343;54;20596;31
2023/06/06 10:31:29;;;;;;;5.45;3.30;;;25.30;99.90;;;;;;2621681;46;20026;31
2023/06/06 10:34:08;;;;;;;6.53;3.00;;;25.30;99.90;;;;;;2603256;54;20895;31
2023/06/06 10:36:51;;;;;;;6.18;3.00;;;25.40;99.90;;;;;;2621522;46;20030;31
2023/06/06 10:39:29;;;;;;;5.53;3.15;;;25.40;99.90;;;;;;2605778;46;20104;31
2023/06/06 10:42:14;;;;;;;7.50;2.80;;;25.40;99.90;;;;;;2603103;54;20583;31
2023/06/06 10:44:59;;;;;;;7.05;2.67;;;25.50;99.90;;;;;;2621966;46;20053;31
2023/06/06 10:47:37;;;;;;;4.43;2.67;;;25.60;99.90;;;;;;2603316;54;20848;31
2023/06/06 10:50:38;;;;;;;5.38;2.70;;;25.70;99.90;;;;;;2602375;54;20038;31
2023/06/06 10:53:19;;;;;;;4.97;2.90;;;25.70;99.90;;;;;;2603296;54;20030;31
2023/06/06 10:55:54;;;;;;;7.50;2.90;;;25.70;98.70;;;;;;2621821;47;20030;31
2023/06/06 10:58:30;;;;;;;;;;;25.80;99.70;;;;;;2621639;47;21556;31
2023/06/06 11:01:06;;;;;;;4.25;2.33;;;25.80;98.50;;;;;;2621458;47;20781;31
2023/06/06 11:03:42;;;;;;;6.75;2.85;;;25.90;97.80;;;;;;2621643;47;20023;31
2023/06/06 11:06:18;;;;;;;4.90;2.55;;;25.90;96.90;;;;;;2701767;39;20584;31
2023/06/06 11:09:00;;;;;;;5.93;3.00;;;26.00;96.90;;;;;;2621592;47;20038;31
2023/06/06 11:11:37;;;;;;;3.70;2.30;;;25.90;96.30;;;;;;2603268;54;20851;31
2023/06/06 11:14:16;;;;;;;5.00;2.72;;;26.00;95.50;;;;;;2621609;47;20939;31
2023/06/06 11:17:02;;;;;;;6.70;3.00;;;26.00;97.00;;;;;;2701908;39;21011;31
2023/06/06 11:19:40;;;;;;;3.55;2.58;;;26.10;96.50;;;;;;2622172;46;20033;31
2023/06/06 11:22:25;;;;;;;6.75;2.63;;;26.10;96.00;;;;;;2604021;54;20605;31
2023/06/06 11:25:06;;;;;;;7.55;3.03;;;26.30;97.50;;;;;;2604118;54;20860;31
2023/06/06 11:27:45;;;;;;;4.90;2.60;;;26.40;98.00;;;;;;2603880;54;20755;31
2023/06/06 11:30:20;;;;;;;6.10;2.70;;;26.40;98.90;;;;;;2622258;46;20037;31
2023/06/06 11:32:55;;;;;;;;;;;26.40;96.90;;;;;;2622542;46;20089;31
2023/06/06 11:35:33;;;;;;;5.28;2.63;;;26.50;95.00;;;;;;2603939;54;20896;31
2023/06/06 11:38:09;;;;;;;3.45;2.35;;;26.50;97.20;;;;;;2603921;54;20026;31
2023/06/06 11:40:48;;;;;;;6.75;2.20;;;26.50;96.80;;;;;;2603724;54;20030;31
2023/06/06 11:43:24;;;;;;;7.97;2.72;;;26.50;96.30;;;;;;2603649;54;20030;31
2023/06/06 11:46:06;;;;;;;5.47;2.53;;;26.60;95.10;;;;;;2603984;54;20026;31
2023/06/06 11:48:42;;;;;;;4.00;2.60;;;26.70;94.00;;;;;;2603906;54;20851;31
2023/06/06 11:51:18;;;;;;;3.75;2.20;;;26.80;95.70;;;;;;2702398;39;20450;31
2023/06/06 11:53:54;;;;;;;6.03;3.13;;;26.80;95.00;;;;;;2603709;54;20856;31
2023/06/06 11:56:33;;;;;;;5.25;2.17;;;26.80;94.40;;;;;;2603688;54;20136;31
2023/06/06 11:59:11;;;;;;;3.80;2.20;;;26.80;91.40;;;;;;2602989;54;20922;31
2023/06/06 12:01:50;;;;;;;5.03;1.93;;;26.80;91.40;;;;;;2603594;54;20708;31
2023/06/06 12:04:26;;;;;;;4.30;1.92;;;26.80;88.80;;;;;;2622073;46;20240;31
2023/06/06 12:07:05;;;;;;;2.77;1.97;;;26.80;87.60;;;;;;2702357;39;20470;31
2023/06/06 12:09:45;;;;;;;3.50;2.20;;;26.70;87.80;;;;;;2621975;46;20801;31
2023/06/06 12:12:22;;;;;;;2.65;1.95;;;26.80;89.30;;;;;;2603701;54;20884;31
2023/06/06 12:15:01;;;;;;;2.92;1.60;;;26.80;86.40;;;;;;2615113;46;20104;31
2023/06/06 12:17:36;;;;;;;2.97;2.10;;;26.70;83.90;;;;;;2603889;54;19938;31
2023/06/06 12:20:15;;;;;;;2.60;1.80;;;26.70;84.90;;;;;;2603712;54;20031;31
2023/06/06 12:22:51;;;;;;;4.55;2.10;;;26.70;84.70;;;;;;2603772;54;20033;31
2023/06/06 12:25:29;;;;;;;5.65;2.28;;;26.80;85.80;;;;;;2622121;46;20042;31
2023/06/06 12:28:04;;;;;;;4.53;2.05;;;26.80;85.70;;;;;;2603806;54;20026;31
2023/06/06 12:30:44;;;;;;;3.35;1.90;;;26.90;82.70;;;;;;2603459;54;20022;31
2023/06/06 12:33:19;;;;;;;4.20;1.98;;;26.90;82.00;;;;;;2603672;54;20037;31
2023/06/06 12:35:55;;;;;;;4.22;2.20;;;26.90;81.00;;;;;;2603492;54;20932;31
2023/06/06 12:38:30;;;;;;;2.10;1.80;;;27.00;81.10;;;;;;2622370;46;20027;31
2023/06/06 12:41:06;;;;;;;7.05;2.30;;;27.00;81.30;;;;;;2603454;54;20040;31
2023/06/06 12:43:42;;;;;;;5.75;2.55;;;27.00;80.80;;;;;;2621966;46;20093;31
2023/06/06 12:46:21;;;;;;;2.75;2.00;;;27.00;81.90;;;;;;2603438;54;20764;31
2023/06/06 12:48:59;;;;;;;2.38;1.98;;;27.00;81.50;;;;;;2603525;54;20033;31
2023/06/06 12:51:38;;;;;;;4.22;1.95;;;27.10;82.30;;;;;;2603528;54;20837;31
2023/06/06 12:54:16;;;;;;;3.40;2.20;;;27.20;80.30;;;;;;2622069;46;20803;31
2023/06/06 12:56:51;;;;;;;5.03;2.28;;;27.20;80.20;;;;;;2603691;54;20923;31
2023/06/06 12:59:26;;;;;;;;;;;27.20;81.30;;;;;;2603759;54;20030;31
2023/06/06 13:02:06;;;;;;;2.50;2.05;;;27.30;78.10;;;;;;2720506;39;20479;31
2023/06/06 13:04:42;;;;;;;6.57;2.22;;;27.20;78.70;;;;;;2603731;54;20026;31
2023/06/06 13:07:19;;;;;;;5.55;2.30;;;27.20;78.50;;;;;;2603501;54;20027;31
2023/06/06 13:09:55;;;;;;;5.20;2.13;;;27.30;79.40;;;;;;2603406;54;20037;31
2023/06/06 13:12:31;;;;;;;7.30;2.45;;;27.40;79.60;;;;;;2603705;54;20027;31
2023/06/06 13:15:07;;;;;;;3.53;2.15;;;27.40;78.60;;;;;;2792033;31;21447;31
2023/06/06 13:17:48;;;;;;;4.70;2.53;;;27.50;78.10;;;;;;2603530;54;20034;31
2023/06/06 13:20:26;;;;;;;4.00;2.20;;;27.50;77.50;;;;;;2621955;46;20026;31
2023/06/06 13:23:01;;;;;;;4.63;2.37;;;27.60;77.20;;;;;;2622156;46;20054;31
2023/06/06 13:25:39;;;;;;;2.60;2.00;;;27.60;77.10;;;;;;2603543;54;20034;31
2023/06/06 13:28:15;;;;;;;4.40;2.20;;;27.80;76.40;;;;;;2621763;46;20328;31
2023/06/06 13:30:49;;;;;;;6.35;2.40;;;27.90;75.50;;;;;;2622168;46;20026;31
2023/06/06 13:33:30;;;;;;;7.32;2.25;;;27.90;75.60;;;;;;2603860;54;20037;31
2023/06/06 13:36:06;;;;;;;3.80;2.28;;;28.10;74.50;;;;;;2605202;46;20030;31
2023/06/06 13:38:47;;;;;;;4.18;2.10;;;28.10;75.40;;;;;;2720778;39;21038;31
2023/06/06 13:41:21;;;;;;;2.95;2.15;;;28.20;75.20;;;;;;2621844;46;20026;31
2023/06/06 13:44:00;;;;;;;3.95;2.38;;;28.30;75.20;;;;;;2603532;54;20258;31